Time;durP1;ratioP1;P1;durP2;ratioP2;P2;SDS_P1;SDS_P2;PMS_P1;PMS_P2;Temp;Humidity;BMP_temperature;BMP_pressure;BME280_temperature;BME280_humidity;BME280_pressure;Samples;Min_cycle;Max_cycle;Signal;HPM_P1;HPM_P2
2022/04/07 00:01:04;;;;;;;21.85;4.38;;;;;;;;;;4915462;29;20021;-62
2022/04/07 00:03:30;;;;;;;19.27;3.92;;;;;;;;;;4915374;29;20028;-67
2022/04/07 00:05:57;;;;;;;19.35;4.22;;;;;;;;;;4915368;29;20036;-63
2022/04/07 00:08:23;;;;;;;21.83;3.85;;;;;;;;;;4915365;29;20087;-63
2022/04/07 00:10:50;;;;;;;32.80;5.55;;;;;;;;;;4915289;29;20028;-68
2022/04/07 00:13:16;;;;;;;23.35;4.68;;;;;;;;;;4915438;29;20428;-68
2022/04/07 00:15:43;;;;;;;30.67;4.40;;;;;;;;;;4915451;29;20047;-68
2022/04/07 00:18:09;;;;;;;24.77;4.28;;;;;;;;;;4915072;29;20043;-63
2022/04/07 00:20:35;;;;;;;29.02;4.68;;;;;;;;;;4914971;29;20051;-62
2022/04/07 00:23:01;;;;;;;30.98;5.32;;;;;;;;;;4915061;29;20420;-63
2022/04/07 00:25:27;;;;;;;31.95;5.47;;;;;;;;;;4914722;29;20040;-68
2022/04/07 00:27:54;;;;;;;27.60;4.88;;;;;;;;;;4914894;29;20036;-63
2022/04/07 00:30:21;;;;;;;30.88;4.82;;;;;;;;;;4914804;29;20047;-63
2022/04/07 00:32:47;;;;;;;33.00;4.38;;;;;;;;;;4914690;29;20134;-63
2022/04/07 00:35:14;;;;;;;28.83;4.18;;;;;;;;;;4914607;29;20028;-63
2022/04/07 00:37:41;;;;;;;32.55;4.90;;;;;;;;;;4914709;29;20393;-65
2022/04/07 00:40:08;;;;;;;35.78;6.03;;;;;;;;;;4914931;29;20453;-63
2022/04/07 00:42:34;;;;;;;33.28;5.10;;;;;;;;;;4914740;29;20036;-68
2022/04/07 00:45:00;;;;;;;33.92;4.63;;;;;;;;;;4914595;29;20441;-64
2022/04/07 00:47:27;;;;;;;25.77;5.30;;;;;;;;;;4914709;29;20047;-63
2022/04/07 00:49:54;;;;;;;25.27;5.05;;;;;;;;;;4914619;29;20051;-63
2022/04/07 00:52:20;;;;;;;34.80;5.75;;;;;;;;;;4914685;29;20421;-63
2022/04/07 00:54:47;;;;;;;24.20;5.20;;;;;;;;;;4914824;29;20036;-63
2022/04/07 00:57:13;;;;;;;26.02;4.80;;;;;;;;;;4914905;29;20058;-63
2022/04/07 00:59:41;;;;;;;32.47;4.93;;;;;;;;;;4914406;29;20055;-64
2022/04/07 01:02:09;;;;;;;29.38;5.57;;;;;;;;;;4914608;29;20024;-63
2022/04/07 01:04:36;;;;;;;35.60;4.95;;;;;;;;;;4914592;29;20036;-63
2022/04/07 01:07:02;;;;;;;34.95;6.03;;;;;;;;;;4914423;29;20036;-63
2022/04/07 01:09:28;;;;;;;34.97;5.57;;;;;;;;;;4914596;29;20024;-68
2022/04/07 01:11:55;;;;;;;35.35;5.40;;;;;;;;;;4914494;29;20036;-63
2022/04/07 01:14:21;;;;;;;36.03;5.88;;;;;;;;;;4914760;29;20040;-63
2022/04/07 01:16:47;;;;;;;29.48;5.32;;;;;;;;;;4914684;29;20386;-63
2022/04/07 01:19:13;;;;;;;37.17;5.47;;;;;;;;;;4914487;29;20115;-63
2022/04/07 01:21:40;;;;;;;31.38;5.20;;;;;;;;;;4914708;29;20025;-63
2022/04/07 01:24:10;;;;;;;33.67;5.35;;;;;;;;;;4914396;29;20027;-63
2022/04/07 01:26:37;;;;;;;35.85;5.05;;;;;;;;;;4914293;29;20059;-63
2022/04/07 01:29:04;;;;;;;31.52;4.43;;;;;;;;;;4914352;29;20036;-63
2022/04/07 01:31:31;;;;;;;25.55;3.65;;;;;;;;;;4914567;29;20024;-63
2022/04/07 01:33:58;;;;;;;27.00;5.22;;;;;;;;;;4915804;29;20016;-63
2022/04/07 01:36:24;;;;;;;26.20;4.68;;;;;;;;;;4917947;29;20024;-67
2022/04/07 01:38:51;;;;;;;28.38;4.53;;;;;;;;;;4918352;29;20040;-62
2022/04/07 01:41:19;;;;;;;22.13;4.22;;;;;;;;;;4918089;29;20441;-69
2022/04/07 01:43:46;;;;;;;28.92;3.85;;;;;;;;;;4918166;29;20111;-63
2022/04/07 01:46:12;;;;;;;32.35;4.50;;;;;;;;;;4917839;29;20866;-63
2022/04/07 01:48:39;;;;;;;24.45;4.65;;;;;;;;;;4917827;29;20055;-67
2022/04/07 01:51:06;;;;;;;24.05;4.28;;;;;;;;;;4917794;29;20104;-63
2022/04/07 01:53:32;;;;;;;27.27;4.35;;;;;;;;;;4917729;29;20053;-63
2022/04/07 01:55:59;;;;;;;26.00;4.00;;;;;;;;;;4917684;29;20043;-63
2022/04/07 01:58:25;;;;;;;30.33;4.40;;;;;;;;;;4917566;29;20051;-63
2022/04/07 02:00:51;;;;;;;32.65;5.18;;;;;;;;;;4917922;29;20024;-62
2022/04/07 02:03:17;;;;;;;21.73;3.95;;;;;;;;;;4919226;29;20024;-69
2022/04/07 02:05:43;;;;;;;31.25;4.30;;;;;;;;;;4918724;29;20047;-63
2022/04/07 02:08:09;;;;;;;23.45;4.05;;;;;;;;;;4917628;29;20099;-63
2022/04/07 02:10:35;;;;;;;24.83;3.97;;;;;;;;;;4917480;29;20064;-62
2022/04/07 02:13:01;;;;;;;23.67;3.83;;;;;;;;;;4917539;29;20028;-63
2022/04/07 02:15:27;;;;;;;29.30;4.45;;;;;;;;;;4917228;29;20378;-61
2022/04/07 02:17:54;;;;;;;21.77;4.65;;;;;;;;;;4917411;29;20028;-62
2022/04/07 02:20:20;;;;;;;28.10;4.55;;;;;;;;;;4917452;29;20028;-61
2022/04/07 02:22:46;;;;;;;21.25;4.13;;;;;;;;;;4917455;29;20020;-61
2022/04/07 02:25:12;;;;;;;17.27;3.22;;;;;;;;;;4916736;29;20044;-62
2022/04/07 02:27:41;;;;;;;25.52;3.80;;;;;;;;;;4917134;29;20083;-62
2022/04/07 02:30:11;;;;;;;24.33;3.70;;;;;;;;;;4917030;29;20028;-62
2022/04/07 02:32:37;;;;;;;18.88;3.63;;;;;;;;;;4916953;29;20388;-69
2022/04/07 02:35:03;;;;;;;14.40;3.70;;;;;;;;;;4916968;29;20028;-61
2022/04/07 02:37:29;;;;;;;28.92;4.60;;;;;;;;;;4917136;29;20031;-63
2022/04/07 02:39:56;;;;;;;25.10;4.07;;;;;;;;;;4917085;29;20374;-62
2022/04/07 02:42:22;;;;;;;29.90;4.03;;;;;;;;;;4916827;29;20363;-63
2022/04/07 02:44:48;;;;;;;26.98;4.00;;;;;;;;;;4916867;29;20560;-63
2022/04/07 02:47:14;;;;;;;19.80;4.13;;;;;;;;;;4916912;29;20057;-65
2022/04/07 02:49:40;;;;;;;23.98;4.53;;;;;;;;;;4917263;29;20032;-65
2022/04/07 02:52:07;;;;;;;18.63;3.40;;;;;;;;;;4916994;29;20028;-63
2022/04/07 02:54:33;;;;;;;23.55;3.78;;;;;;;;;;4916469;29;20072;-63
2022/04/07 02:56:59;;;;;;;19.15;3.60;;;;;;;;;;4916738;29;20400;-62
2022/04/07 02:59:25;;;;;;;21.13;4.03;;;;;;;;;;4916643;29;20477;-63
2022/04/07 03:01:53;;;;;;;23.10;3.55;;;;;;;;;;4916731;29;20367;-62
2022/04/07 03:04:19;;;;;;;23.08;3.50;;;;;;;;;;4916567;29;20578;-67
2022/04/07 03:06:45;;;;;;;23.33;3.35;;;;;;;;;;4916512;29;20071;-61
2022/04/07 03:09:11;;;;;;;21.38;3.42;;;;;;;;;;4916502;29;20028;-62
2022/04/07 03:11:37;;;;;;;20.55;3.85;;;;;;;;;;4916523;29;20038;-61
2022/04/07 03:14:03;;;;;;;19.17;3.80;;;;;;;;;;4916119;29;20111;-61
2022/04/07 03:16:29;;;;;;;19.83;4.15;;;;;;;;;;4916532;29;20039;-61
2022/04/07 03:18:55;;;;;;;22.33;3.70;;;;;;;;;;4916216;29;20036;-61
2022/04/07 03:21:21;;;;;;;15.68;3.50;;;;;;;;;;4916268;29;20031;-66
2022/04/07 03:23:48;;;;;;;24.52;4.47;;;;;;;;;;4916467;29;20028;-64
2022/04/07 03:26:14;;;;;;;22.67;3.88;;;;;;;;;;4915793;29;20447;-62
2022/04/07 03:28:40;;;;;;;16.92;3.83;;;;;;;;;;4916048;29;20035;-66
2022/04/07 03:31:06;;;;;;;16.52;3.00;;;;;;;;;;4915903;29;20035;-63
2022/04/07 03:33:32;;;;;;;16.95;2.97;;;;;;;;;;4915849;29;20075;-63
2022/04/07 03:35:58;;;;;;;26.38;7.35;;;;;;;;;;4915579;29;20024;-65
2022/04/07 03:38:24;;;;;;;25.65;6.70;;;;;;;;;;4915979;29;20052;-63
2022/04/07 03:40:50;;;;;;;21.92;3.78;;;;;;;;;;4915483;29;20086;-63
2022/04/07 03:43:16;;;;;;;19.95;3.50;;;;;;;;;;4915824;29;20508;-62
2022/04/07 03:45:42;;;;;;;16.27;3.33;;;;;;;;;;4915565;29;20044;-62
2022/04/07 03:48:08;;;;;;;21.67;3.88;;;;;;;;;;4915893;29;20028;-63
2022/04/07 03:50:34;;;;;;;18.42;3.30;;;;;;;;;;4915770;29;20544;-62
2022/04/07 03:53:00;;;;;;;22.48;5.75;;;;;;;;;;4915858;29;20384;-62
2022/04/07 03:55:26;;;;;;;23.45;8.00;;;;;;;;;;4915787;29;20388;-63
2022/04/07 03:57:52;;;;;;;16.60;4.15;;;;;;;;;;4915171;29;20532;-67
2022/04/07 04:00:19;;;;;;;16.10;3.47;;;;;;;;;;4915162;29;20036;-61
2022/04/07 04:02:45;;;;;;;15.48;2.97;;;;;;;;;;4915319;29;20028;-61
2022/04/07 04:05:12;;;;;;;15.77;3.15;;;;;;;;;;4915273;29;20084;-62
2022/04/07 04:07:38;;;;;;;15.77;3.17;;;;;;;;;;4915219;29;20031;-62
2022/04/07 04:10:04;;;;;;;10.93;2.20;;;;;;;;;;4915430;29;20461;-63
2022/04/07 04:12:30;;;;;;;14.23;2.75;;;;;;;;;;4915517;29;20043;-63
2022/04/07 04:14:57;;;;;;;11.10;2.38;;;;;;;;;;4915177;29;20107;-63
2022/04/07 04:17:24;;;;;;;11.52;2.53;;;;;;;;;;4915164;29;20083;-63
2022/04/07 04:19:50;;;;;;;11.45;2.20;;;;;;;;;;4915157;29;20044;-69
2022/04/07 04:22:16;;;;;;;10.93;2.20;;;;;;;;;;4915296;29;20405;-60
2022/04/07 04:24:42;;;;;;;14.38;2.72;;;;;;;;;;4915280;29;20051;-62
2022/04/07 04:27:08;;;;;;;12.23;2.20;;;;;;;;;;4914867;29;20417;-63
2022/04/07 04:29:34;;;;;;;11.20;2.60;;;;;;;;;;4914892;29;20417;-61
2022/04/07 04:32:00;;;;;;;12.52;2.63;;;;;;;;;;4914841;29;20032;-61
2022/04/07 04:34:27;;;;;;;11.93;4.90;;;;;;;;;;4914576;29;20102;-61
2022/04/07 04:36:53;;;;;;;12.90;3.53;;;;;;;;;;4914645;29;20484;-67
2022/04/07 04:39:19;;;;;;;13.98;2.90;;;;;;;;;;4914771;29;20060;-65
2022/04/07 04:41:45;;;;;;;11.20;3.13;;;;;;;;;;4914587;29;20062;-61
2022/04/07 04:44:11;;;;;;;13.13;3.13;;;;;;;;;;4914651;29;20382;-62
2022/04/07 04:46:37;;;;;;;8.45;2.58;;;;;;;;;;4914538;29;20096;-62
2022/04/07 04:49:03;;;;;;;8.93;2.40;;;;;;;;;;4914761;29;20030;-62
2022/04/07 04:51:29;;;;;;;12.38;2.47;;;;;;;;;;4914221;29;20032;-62
2022/04/07 04:53:55;;;;;;;10.27;2.38;;;;;;;;;;4914441;29;20040;-62
2022/04/07 04:56:22;;;;;;;6.68;2.33;;;;;;;;;;4914450;29;20032;-62
2022/04/07 04:58:48;;;;;;;13.80;2.30;;;;;;;;;;4914217;29;20040;-62
2022/04/07 05:01:14;;;;;;;5.45;1.85;;;;;;;;;;4914386;29;20024;-62
2022/04/07 05:03:40;;;;;;;8.75;4.43;;;;;;;;;;4914308;29;20128;-62
2022/04/07 05:06:06;;;;;;;11.18;2.65;;;;;;;;;;4914192;29;20107;-62
2022/04/07 05:08:32;;;;;;;6.20;1.50;;;;;;;;;;4915159;29;20035;-63
2022/04/07 05:10:58;;;;;;;7.80;1.85;;;;;;;;;;4918011;29;20481;-62
2022/04/07 05:13:24;;;;;;;7.70;1.85;;;;;;;;;;4918292;29;20036;-61
2022/04/07 05:15:50;;;;;;;10.30;2.15;;;;;;;;;;4918189;29;20440;-62
2022/04/07 05:18:16;;;;;;;5.15;1.33;;;;;;;;;;4916918;29;20362;-61
2022/04/07 05:20:42;;;;;;;8.93;1.77;;;;;;;;;;4918247;29;20034;-64
2022/04/07 05:23:08;;;;;;;3.92;0.95;;;;;;;;;;4917963;29;20116;-60
2022/04/07 05:25:34;;;;;;;14.55;6.40;;;;;;;;;;4917673;29;20055;-62
2022/04/07 05:28:01;;;;;;;6.53;1.90;;;;;;;;;;4917952;29;20035;-62
2022/04/07 05:30:27;;;;;;;5.22;1.05;;;;;;;;;;4918091;29;20020;-63
2022/04/07 05:32:53;;;;;;;5.40;1.10;;;;;;;;;;4917945;29;20028;-69
2022/04/07 05:35:19;;;;;;;5.80;1.70;;;;;;;;;;4917926;29;20103;-64
2022/04/07 05:37:46;;;;;;;8.82;1.45;;;;;;;;;;4917949;29;20020;-73
2022/04/07 05:40:13;;;;;;;9.48;1.85;;;;;;;;;;4918200;29;20571;-66
2022/04/07 05:42:39;;;;;;;4.80;1.67;;;;;;;;;;4918031;29;20036;-69
2022/04/07 05:45:06;;;;;;;5.90;1.70;;;;;;;;;;4917893;29;20436;-65
2022/04/07 05:47:38;;;;;;;4.97;1.40;;;;;;;;;;4917932;29;20464;-64
2022/04/07 05:50:04;;;;;;;7.63;1.80;;;;;;;;;;4917803;29;20028;-64
2022/04/07 05:52:30;;;;;;;7.18;1.77;;;;;;;;;;4917654;29;20489;-65
2022/04/07 05:54:56;;;;;;;8.40;2.45;;;;;;;;;;4917488;29;20047;-66
2022/04/07 05:57:26;;;;;;;11.32;5.45;;;;;;;;;;4917574;29;20076;-65
2022/04/07 05:59:52;;;;;;;8.25;2.42;;;;;;;;;;4917603;29;20020;-66
2022/04/07 06:02:18;;;;;;;9.10;2.38;;;;;;;;;;4917528;29;20032;-65
2022/04/07 06:04:44;;;;;;;9.40;2.63;;;;;;;;;;4916943;29;20040;-65
2022/04/07 06:07:10;;;;;;;9.23;2.08;;;;;;;;;;4917365;29;20136;-66
2022/04/07 06:09:36;;;;;;;5.93;1.70;;;;;;;;;;4917261;29;20114;-65
2022/04/07 06:12:02;;;;;;;8.32;1.92;;;;;;;;;;4917352;29;20020;-68
2022/04/07 06:14:28;;;;;;;8.27;2.50;;;;;;;;;;4917425;29;20026;-66
2022/04/07 06:16:54;;;;;;;8.13;2.05;;;;;;;;;;4917482;29;20035;-65
2022/04/07 06:19:20;;;;;;;7.32;1.60;;;;;;;;;;4916584;29;20031;-67
2022/04/07 06:21:46;;;;;;;5.18;2.15;;;;;;;;;;4917022;29;20063;-68
2022/04/07 06:24:13;;;;;;;8.48;1.80;;;;;;;;;;4916745;29;20020;-66
2022/04/07 06:26:39;;;;;;;5.70;2.05;;;;;;;;;;4916847;29;20111;-66
2022/04/07 06:29:05;;;;;;;4.53;1.83;;;;;;;;;;4916937;29;20031;-66
2022/04/07 06:31:31;;;;;;;6.57;2.28;;;;;;;;;;4917059;29;20062;-65
2022/04/07 06:33:57;;;;;;;8.60;2.17;;;;;;;;;;4916249;29;20404;-69
2022/04/07 06:36:23;;;;;;;10.05;2.35;;;;;;;;;;4919319;29;20454;-68
2022/04/07 06:38:49;;;;;;;10.65;3.20;;;;;;;;;;4925254;29;20540;-71
2022/04/07 06:41:15;;;;;;;10.50;2.92;;;;;;;;;;4925349;29;20028;-69
2022/04/07 06:43:41;;;;;;;11.32;3.35;;;;;;;;;;4923773;29;20025;-72
2022/04/07 06:46:07;;;;;;;9.73;3.00;;;;;;;;;;4925343;29;20044;-65
2022/04/07 06:48:33;;;;;;;10.30;3.38;;;;;;;;;;4924988;29;20107;-64
2022/04/07 06:50:59;;;;;;;12.40;3.58;;;;;;;;;;4924451;29;20032;-62
2022/04/07 06:53:25;;;;;;;13.45;3.45;;;;;;;;;;4923214;29;20028;-71
2022/04/07 06:55:51;;;;;;;13.85;4.38;;;;;;;;;;4924692;29;20035;-61
2022/04/07 06:58:18;;;;;;;11.65;3.90;;;;;;;;;;4924696;29;20107;-62
2022/04/07 07:00:45;;;;;;;12.25;3.70;;;;;;;;;;4923028;29;20548;-62
2022/04/07 07:03:11;;;;;;;11.93;3.53;;;;;;;;;;4924591;29;20506;-62
2022/04/07 07:05:37;;;;;;;15.18;4.00;;;;;;;;;;4924298;29;20039;-64
2022/04/07 07:08:13;;;;;;;10.18;4.13;;;;;;;;;;4925476;29;20531;-64
2022/04/07 07:10:39;;;;;;;11.57;3.90;;;;;;;;;;4924823;29;20459;-64
2022/04/07 07:13:06;;;;;;;10.18;3.63;;;;;;;;;;4923252;29;20434;-62
2022/04/07 07:15:32;;;;;;;10.82;3.70;;;;;;;;;;4925128;29;20034;-64
2022/04/07 07:17:58;;;;;;;11.98;3.20;;;;;;;;;;4924755;29;20028;-73
2022/04/07 07:20:24;;;;;;;10.60;3.28;;;;;;;;;;4923364;29;20032;-61
2022/04/07 07:22:50;;;;;;;9.57;3.30;;;;;;;;;;4925088;29;20016;-64
2022/04/07 07:25:16;;;;;;;14.85;3.78;;;;;;;;;;4923621;29;20505;-67
2022/04/07 07:27:46;;;;;;;10.95;3.78;;;;;;;;;;4923156;29;20677;-69
2022/04/07 07:30:13;;;;;;;13.18;3.72;;;;;;;;;;4922116;29;20024;-67
2022/04/07 07:32:40;;;;;;;9.05;3.20;;;;;;;;;;4924137;29;20024;-63
2022/04/07 07:35:06;;;;;;;10.98;3.85;;;;;;;;;;4925905;29;20032;-63
2022/04/07 07:37:32;;;;;;;11.13;3.75;;;;;;;;;;4924099;29;20047;-61
2022/04/07 07:40:05;;;;;;;13.27;3.70;;;;;;;;;;4915954;29;20028;-64
2022/04/07 07:42:31;;;;;;;13.77;3.60;;;;;;;;;;4915500;29;20059;-69
2022/04/07 07:44:57;;;;;;;11.10;3.92;;;;;;;;;;4915199;29;20089;-63
2022/04/07 07:47:23;;;;;;;13.85;4.28;;;;;;;;;;4915181;29;20436;-62
2022/04/07 07:49:49;;;;;;;8.57;3.60;;;;;;;;;;4915178;29;20801;-63
2022/04/07 07:52:15;;;;;;;11.23;4.10;;;;;;;;;;4915424;29;20396;-63
2022/04/07 07:54:41;;;;;;;10.77;4.00;;;;;;;;;;4914755;29;20038;-62
2022/04/07 07:57:07;;;;;;;9.80;3.88;;;;;;;;;;4915560;29;20115;-62
2022/04/07 07:59:33;;;;;;;11.85;4.13;;;;;;;;;;4915368;29;20025;-63
2022/04/07 08:01:59;;;;;;;10.30;3.40;;;;;;;;;;4915139;29;20532;-64
2022/04/07 08:04:25;;;;;;;13.52;3.63;;;;;;;;;;4914905;29;20389;-64
2022/04/07 08:06:51;;;;;;;10.18;3.55;;;;;;;;;;4915311;29;20080;-64
2022/04/07 08:09:17;;;;;;;10.30;3.20;;;;;;;;;;4914989;29;20069;-64
2022/04/07 08:11:43;;;;;;;9.27;2.92;;;;;;;;;;4915010;29;20044;-64
2022/04/07 08:14:09;;;;;;;11.05;3.40;;;;;;;;;;4915192;29;20027;-65
2022/04/07 08:16:36;;;;;;;11.45;3.90;;;;;;;;;;4914927;29;20051;-65
2022/04/07 08:19:03;;;;;;;10.43;3.55;;;;;;;;;;4915302;29;20036;-64
2022/04/07 08:21:29;;;;;;;10.32;3.50;;;;;;;;;;4915243;29;20032;-64
2022/04/07 08:23:55;;;;;;;15.63;4.20;;;;;;;;;;4915223;29;20036;-64
2022/04/07 08:26:21;;;;;;;12.20;3.50;;;;;;;;;;4921297;29;20051;-64
2022/04/07 08:28:47;;;;;;;10.77;3.60;;;;;;;;;;4921702;29;20040;-65
2022/04/07 08:31:13;;;;;;;10.43;4.43;;;;;;;;;;4922610;29;20047;-63
2022/04/07 08:33:40;;;;;;;15.40;4.05;;;;;;;;;;4927519;29;20032;-66
2022/04/07 08:36:06;;;;;;;9.93;3.63;;;;;;;;;;4920580;29;20032;-62
2022/04/07 08:38:32;;;;;;;12.98;4.45;;;;;;;;;;4924349;29;20042;-63
2022/04/07 08:40:58;;;;;;;12.07;4.07;;;;;;;;;;4921827;29;20464;-62
2022/04/07 08:43:25;;;;;;;11.48;3.90;;;;;;;;;;4924762;29;20026;-62
2022/04/07 08:45:51;;;;;;;11.77;3.70;;;;;;;;;;4920406;29;20032;-61
2022/04/07 08:48:17;;;;;;;13.30;4.57;;;;;;;;;;4922103;29;20484;-64
2022/04/07 08:50:44;;;;;;;13.27;4.00;;;;;;;;;;4923714;29;20048;-64
2022/04/07 08:53:11;;;;;;;11.35;4.07;;;;;;;;;;4920084;29;20064;-64
2022/04/07 08:55:37;;;;;;;14.13;3.72;;;;;;;;;;4919283;29;20441;-64
2022/04/07 08:58:03;;;;;;;11.80;3.47;;;;;;;;;;4918534;29;20290;-64
2022/04/07 09:00:29;;;;;;;13.70;4.25;;;;;;;;;;4918403;29;20067;-67
2022/04/07 09:02:55;;;;;;;12.65;3.80;;;;;;;;;;4920256;29;20048;-66
2022/04/07 09:05:25;;;;;;;10.98;4.00;;;;;;;;;;4924452;29;20076;-66
2022/04/07 09:07:52;;;;;;;11.57;4.00;;;;;;;;;;4920608;29;20127;-68
2022/04/07 09:10:19;;;;;;;9.27;3.55;;;;;;;;;;4926549;29;20492;-67
2022/04/07 09:12:45;;;;;;;13.50;4.10;;;;;;;;;;4924106;29;20040;-64
2022/04/07 09:15:13;;;;;;;12.57;5.20;;;;;;;;;;4914506;29;20028;-64
2022/04/07 09:17:55;;;;;;;9.65;4.53;;;;;;;;;;4927741;29;20042;-64
2022/04/07 09:20:22;;;;;;;14.35;4.88;;;;;;;;;;4918800;29;20111;-67
2022/04/07 09:22:58;;;;;;;12.38;5.00;;;;;;;;;;4930459;29;20032;-64
2022/04/07 09:25:24;;;;;;;14.23;5.38;;;;;;;;;;4931487;29;20095;-68
2022/04/07 09:27:50;;;;;;;14.38;4.85;;;;;;;;;;4913954;29;20044;-64
2022/04/07 09:30:16;;;;;;;11.65;4.88;;;;;;;;;;4917563;29;20032;-66
2022/04/07 09:32:43;;;;;;;14.57;5.10;;;;;;;;;;4932834;29;20055;-67
2022/04/07 09:35:11;;;;;;;11.05;3.92;;;;;;;;;;4916671;29;20083;-64
2022/04/07 09:37:38;;;;;;;9.48;3.17;;;;;;;;;;4914010;29;20032;-64
2022/04/07 09:40:07;;;;;;;11.73;3.28;;;;;;;;;;4914061;29;20075;-64
2022/04/07 09:42:34;;;;;;;9.15;3.13;;;;;;;;;;4913942;29;20036;-63
2022/04/07 09:45:01;;;;;;;13.00;3.80;;;;;;;;;;4913217;29;20126;-64
2022/04/07 09:47:39;;;;;;;12.55;3.25;;;;;;;;;;4921438;29;20027;-65
2022/04/07 09:50:06;;;;;;;10.40;3.97;;;;;;;;;;4907525;29;20056;-63
2022/04/07 09:52:32;;;;;;;12.27;4.13;;;;;;;;;;4930066;29;20142;-62
2022/04/07 09:55:06;;;;;;;16.90;4.90;;;;;;;;;;4933176;29;20039;-65
2022/04/07 09:57:33;;;;;;;14.90;5.00;;;;;;;;;;4925018;29;20071;-62
2022/04/07 10:00:01;;;;;;;12.60;3.47;;;;;;;;;;4921028;29;20059;-62
2022/04/07 10:02:29;;;;;;;14.50;4.07;;;;;;;;;;4936831;29;20043;-67
2022/04/07 10:04:56;;;;;;;12.27;4.50;;;;;;;;;;4936453;29;20024;-68
2022/04/07 10:07:22;;;;;;;12.90;4.10;;;;;;;;;;4934984;29;20031;-65
2022/04/07 10:09:49;;;;;;;19.30;4.88;;;;;;;;;;4931956;29;20024;-63
2022/04/07 10:12:16;;;;;;;13.25;3.70;;;;;;;;;;4914444;29;20061;-65
2022/04/07 10:14:42;;;;;;;15.30;4.30;;;;;;;;;;4916670;29;20697;-64
2022/04/07 10:17:10;;;;;;;12.23;4.20;;;;;;;;;;4915278;29;20388;-62
2022/04/07 10:19:45;;;;;;;16.20;3.92;;;;;;;;;;4915866;29;20048;-62
2022/04/07 10:22:30;;;;;;;15.27;5.35;;;;;;;;;;4916238;29;20451;-64
2022/04/07 10:25:00;;;;;;;11.25;4.07;;;;;;;;;;4915834;29;20119;-63
2022/04/07 10:27:29;;;;;;;12.98;4.60;;;;;;;;;;4916555;29;20048;-65
2022/04/07 10:30:09;;;;;;;14.88;4.30;;;;;;;;;;4916753;29;20035;-64
2022/04/07 10:32:38;;;;;;;9.48;3.30;;;;;;;;;;4917180;29;20088;-62
2022/04/07 10:35:05;;;;;;;9.45;2.95;;;;;;;;;;4916368;29;20095;-63
2022/04/07 10:37:44;;;;;;;15.07;3.83;;;;;;;;;;4916011;29;20059;-65
2022/04/07 10:40:28;;;;;;;9.50;3.28;;;;;;;;;;4902116;29;20123;-64
2022/04/07 10:43:07;;;;;;;9.82;3.38;;;;;;;;;;4915969;29;20039;-63
2022/04/07 10:45:36;;;;;;;12.85;3.78;;;;;;;;;;4919417;29;20036;-61
2022/04/07 10:48:24;;;;;;;10.95;3.08;;;;;;;;;;4901267;29;20028;-61
2022/04/07 10:50:55;;;;;;;10.68;3.80;;;;;;;;;;4916238;29;20032;-62
2022/04/07 10:53:42;;;;;;;13.30;3.72;;;;;;;;;;4916324;29;20103;-63
2022/04/07 10:56:24;;;;;;;10.40;3.60;;;;;;;;;;4906491;29;20087;-63
2022/04/07 10:58:56;;;;;;;8.20;3.00;;;;;;;;;;4915067;29;20165;-64
2022/04/07 11:01:31;;;;;;;9.82;3.75;;;;;;;;;;4917089;29;20150;-65
2022/04/07 11:04:16;;;;;;;9.85;3.50;;;;;;;;;;4918627;29;20039;-62
2022/04/07 11:07:01;;;;;;;8.77;4.30;;;;;;;;;;4900808;29;20047;-61
2022/04/07 11:09:27;;;;;;;12.15;3.90;;;;;;;;;;4899678;29;20064;-62
2022/04/07 11:11:55;;;;;;;9.05;3.58;;;;;;;;;;4917823;29;20055;-62
2022/04/07 11:14:28;;;;;;;12.02;4.00;;;;;;;;;;4917494;29;20386;-62
2022/04/07 11:16:53;;;;;;;;;;;;;;;;;;4918170;29;20504;-63
2022/04/07 11:19:34;;;;;;;10.85;4.65;;;;;;;;;;4917028;29;20336;-62
2022/04/07 11:22:12;;;;;;;11.98;4.65;;;;;;;;;;4919176;29;20035;-62
2022/04/07 11:24:44;;;;;;;13.07;5.00;;;;;;;;;;4922425;29;20102;-63
2022/04/07 11:27:29;;;;;;;17.38;5.35;;;;;;;;;;4914461;29;20075;-65
2022/04/07 11:30:05;;;;;;;11.23;5.32;;;;;;;;;;4915134;29;20036;-63
2022/04/07 11:32:31;;;;;;;10.82;5.00;;;;;;;;;;4920196;29;20031;-64
2022/04/07 11:35:00;;;;;;;12.15;5.78;;;;;;;;;;4919076;29;20527;-62
2022/04/07 11:37:26;;;;;;;14.38;6.22;;;;;;;;;;4923942;29;20036;-63
2022/04/07 11:39:53;;;;;;;11.80;6.40;;;;;;;;;;4922686;29;20059;-64
2022/04/07 11:42:20;;;;;;;18.20;6.20;;;;;;;;;;4922963;29;20135;-62
2022/04/07 11:44:47;;;;;;;17.20;6.65;;;;;;;;;;4923253;29;20101;-62
2022/04/07 11:47:26;;;;;;;14.07;7.03;;;;;;;;;;4924274;29;20067;-63
2022/04/07 11:49:52;;;;;;;21.45;9.52;;;;;;;;;;4924575;29;20118;-63
2022/04/07 11:52:25;;;;;;;20.83;9.98;;;;;;;;;;4922869;29;20052;-64
2022/04/07 11:54:55;;;;;;;20.42;8.27;;;;;;;;;;4921760;29;20044;-62
2022/04/07 11:57:22;;;;;;;15.48;7.55;;;;;;;;;;4903252;29;20123;-62
2022/04/07 11:59:48;;;;;;;11.68;7.15;;;;;;;;;;4913487;29;20028;-66
2022/04/07 12:02:20;;;;;;;14.02;6.88;;;;;;;;;;4915292;29;20059;-64
2022/04/07 12:04:47;;;;;;;15.55;7.22;;;;;;;;;;4926491;29;20403;-62
2022/04/07 12:07:14;;;;;;;14.75;6.90;;;;;;;;;;4924692;29;20476;-60
2022/04/07 12:09:40;;;;;;;10.75;6.80;;;;;;;;;;4923357;29;20067;-63
2022/04/07 12:12:06;;;;;;;15.43;7.45;;;;;;;;;;4925805;29;20016;-62
2022/04/07 12:14:33;;;;;;;14.38;7.28;;;;;;;;;;4923725;29;20048;-63
2022/04/07 12:17:00;;;;;;;9.75;7.00;;;;;;;;;;4919946;29;20016;-62
2022/04/07 12:19:41;;;;;;;13.32;6.78;;;;;;;;;;4913908;29;20494;-64
2022/04/07 12:22:08;;;;;;;12.77;6.63;;;;;;;;;;4914968;29;20027;-66
2022/04/07 12:24:34;;;;;;;11.25;6.10;;;;;;;;;;4914535;29;20047;-61
2022/04/07 12:27:00;;;;;;;15.98;7.00;;;;;;;;;;4912319;29;20508;-60
2022/04/07 12:29:34;;;;;;;11.68;6.45;;;;;;;;;;4915026;29;20055;-60
2022/04/07 12:32:00;;;;;;;16.33;6.82;;;;;;;;;;4914986;29;20358;-66
2022/04/07 12:34:26;;;;;;;12.45;6.25;;;;;;;;;;4914310;29;20043;-63
2022/04/07 12:36:52;;;;;;;13.68;8.02;;;;;;;;;;4914170;29;20467;-62
2022/04/07 12:39:20;;;;;;;14.45;8.23;;;;;;;;;;4913891;29;20095;-61
2022/04/07 12:41:48;;;;;;;15.07;7.32;;;;;;;;;;4914519;29;20103;-62
2022/04/07 12:44:21;;;;;;;17.65;6.85;;;;;;;;;;4914356;29;20081;-66
2022/04/07 12:46:47;;;;;;;;;;;;;;;;;;4914827;29;20485;-66
2022/04/07 12:49:13;;;;;;;11.80;6.70;;;;;;;;;;4914654;29;19912;-66
2022/04/07 12:51:40;;;;;;;11.73;6.22;;;;;;;;;;4914009;29;20032;-65
2022/04/07 12:54:09;;;;;;;12.32;5.93;;;;;;;;;;4914632;29;20033;-65
2022/04/07 12:56:36;;;;;;;15.07;6.88;;;;;;;;;;4914438;29;20384;-63
2022/04/07 12:59:03;;;;;;;11.98;6.40;;;;;;;;;;4914196;29;20020;-65
2022/04/07 13:01:29;;;;;;;12.52;6.07;;;;;;;;;;4914370;29;20107;-63
2022/04/07 13:03:56;;;;;;;10.30;5.75;;;;;;;;;;4914302;29;20083;-64
2022/04/07 13:06:23;;;;;;;11.80;5.45;;;;;;;;;;4913675;29;20464;-64
2022/04/07 13:08:49;;;;;;;12.63;4.93;;;;;;;;;;4914266;29;20039;-66
2022/04/07 13:11:31;;;;;;;13.98;4.93;;;;;;;;;;4914151;29;20108;-63
2022/04/07 13:13:57;;;;;;;11.73;6.38;;;;;;;;;;4913897;29;20031;-62
2022/04/07 13:16:23;;;;;;;14.50;7.55;;;;;;;;;;4914009;29;20440;-65
2022/04/07 13:18:50;;;;;;;9.57;5.22;;;;;;;;;;4913693;29;20395;-62
2022/04/07 13:21:16;;;;;;;13.00;4.63;;;;;;;;;;4913875;29;20062;-62
2022/04/07 13:23:42;;;;;;;8.93;4.22;;;;;;;;;;4913417;29;20028;-64
2022/04/07 13:26:08;;;;;;;9.25;4.30;;;;;;;;;;4913776;29;20796;-61
2022/04/07 13:28:35;;;;;;;8.55;3.75;;;;;;;;;;4913880;29;20032;-62
2022/04/07 13:31:02;;;;;;;9.55;4.15;;;;;;;;;;4916929;29;20028;-65
2022/04/07 13:33:28;;;;;;;9.23;4.00;;;;;;;;;;4917982;29;20020;-62
2022/04/07 13:35:55;;;;;;;9.45;3.70;;;;;;;;;;4917564;29;20076;-62
2022/04/07 13:38:22;;;;;;;8.25;3.47;;;;;;;;;;4917831;29;20036;-67
2022/04/07 13:40:49;;;;;;;6.07;3.40;;;;;;;;;;4917706;29;20043;-61
2022/04/07 13:43:16;;;;;;;9.20;3.97;;;;;;;;;;4917384;29;20519;-66
2022/04/07 13:45:44;;;;;;;13.25;7.43;;;;;;;;;;4917246;29;20032;-63
2022/04/07 13:48:11;;;;;;;13.10;6.85;;;;;;;;;;4917617;29;20047;-65
2022/04/07 13:50:38;;;;;;;24.30;11.23;;;;;;;;;;4917619;29;20031;-61
2022/04/07 13:53:04;;;;;;;21.60;11.25;;;;;;;;;;4917568;29;20043;-60
2022/04/07 13:55:32;;;;;;;14.55;5.95;;;;;;;;;;4916922;29;20080;-60
2022/04/07 13:57:58;;;;;;;10.30;4.85;;;;;;;;;;4917755;29;20035;-62
2022/04/07 14:00:25;;;;;;;12.45;6.70;;;;;;;;;;4917493;29;20103;-62
2022/04/07 14:02:51;;;;;;;11.73;6.50;;;;;;;;;;4917438;29;20028;-63
2022/04/07 14:05:17;;;;;;;11.55;5.60;;;;;;;;;;4916930;29;20024;-60
2022/04/07 14:07:43;;;;;;;11.95;4.82;;;;;;;;;;4899848;29;20041;-61
2022/04/07 14:10:10;;;;;;;10.13;5.03;;;;;;;;;;4916594;29;20077;-63
2022/04/07 14:12:37;;;;;;;13.15;5.65;;;;;;;;;;4916566;29;20020;-62
2022/04/07 14:15:03;;;;;;;11.57;5.20;;;;;;;;;;4910430;29;20035;-65
2022/04/07 14:17:29;;;;;;;13.57;5.72;;;;;;;;;;4914002;29;20040;-65
2022/04/07 14:19:55;;;;;;;9.95;4.28;;;;;;;;;;4915248;29;20032;-68
2022/04/07 14:22:21;;;;;;;7.63;4.55;;;;;;;;;;4915578;29;20400;-64
2022/04/07 14:24:47;;;;;;;9.32;4.65;;;;;;;;;;4915674;29;20024;-62
2022/04/07 14:27:14;;;;;;;8.40;4.28;;;;;;;;;;4912963;29;20060;-64
2022/04/07 14:29:40;;;;;;;8.73;4.20;;;;;;;;;;4922496;29;20038;-65
2022/04/07 14:32:06;;;;;;;9.38;4.68;;;;;;;;;;4915624;29;20028;-66
2022/04/07 14:34:32;;;;;;;8.38;3.95;;;;;;;;;;4917193;29;20020;-66